sensor_id;sensor_type;location;lat;lon;timestamp;pressure;altitude;pressure_sealevel;temperature;humidity
71772;BME280;59606;52.138;5.424;2023-05-25T00:00:38;102733.84;;;11.46;80.09
71772;BME280;59606;52.138;5.424;2023-05-25T00:03:24;102737.44;;;11.42;80.00
71772;BME280;59606;52.138;5.424;2023-05-25T00:05:53;102730.63;;;11.38;79.92
71772;BME280;59606;52.138;5.424;2023-05-25T00:08:19;102735.94;;;11.33;80.15
71772;BME280;59606;52.138;5.424;2023-05-25T00:10:46;102733.53;;;11.27;80.14
71772;BME280;59606;52.138;5.424;2023-05-25T00:13:13;102733.59;;;11.24;79.93
71772;BME280;59606;52.138;5.424;2023-05-25T00:15:40;102732.84;;;11.19;80.47
71772;BME280;59606;52.138;5.424;2023-05-25T00:18:06;102732.16;;;11.12;80.39
71772;BME280;59606;52.138;5.424;2023-05-25T00:20:34;102744.50;;;11.07;80.91
71772;BME280;59606;52.138;5.424;2023-05-25T00:23:00;102740.31;;;11.00;81.29
71772;BME280;59606;52.138;5.424;2023-05-25T00:25:28;102746.56;;;10.94;81.53
71772;BME280;59606;52.138;5.424;2023-05-25T00:27:54;102742.28;;;10.92;81.47
71772;BME280;59606;52.138;5.424;2023-05-25T00:30:21;102748.53;;;10.84;81.36
71772;BME280;59606;52.138;5.424;2023-05-25T00:32:47;102745.16;;;10.81;81.71
71772;BME280;59606;52.138;5.424;2023-05-25T00:35:14;102754.72;;;10.80;81.49
71772;BME280;59606;52.138;5.424;2023-05-25T00:37:41;102754.81;;;10.77;81.78
71772;BME280;59606;52.138;5.424;2023-05-25T00:40:09;102764.47;;;10.74;81.19
71772;BME280;59606;52.138;5.424;2023-05-25T00:42:39;102765.38;;;10.71;81.22
71772;BME280;59606;52.138;5.424;2023-05-25T00:45:06;102761.16;;;10.67;81.05
71772;BME280;59606;52.138;5.424;2023-05-25T00:47:33;102753.34;;;10.66;80.97
71772;BME280;59606;52.138;5.424;2023-05-25T00:50:00;102761.22;;;10.64;81.56
71772;BME280;59606;52.138;5.424;2023-05-25T00:52:27;102763.91;;;10.61;81.30
71772;BME280;59606;52.138;5.424;2023-05-25T00:54:54;102761.34;;;10.58;81.45
71772;BME280;59606;52.138;5.424;2023-05-25T00:57:24;102758.88;;;10.53;81.60
71772;BME280;59606;52.138;5.424;2023-05-25T00:59:54;102765.84;;;10.51;81.45
71772;BME280;59606;52.138;5.424;2023-05-25T01:02:24;102762.47;;;10.48;81.42
71772;BME280;59606;52.138;5.424;2023-05-25T01:04:55;102759.97;;;10.43;81.08
71772;BME280;59606;52.138;5.424;2023-05-25T01:07:25;102760.06;;;10.38;81.66
71772;BME280;59606;52.138;5.424;2023-05-25T01:09:58;102756.66;;;10.36;81.59
71772;BME280;59606;52.138;5.424;2023-05-25T01:12:29;102764.53;;;10.33;81.70
71772;BME280;59606;52.138;5.424;2023-05-25T01:14:58;102766.38;;;10.30;81.18
71772;BME280;59606;52.138;5.424;2023-05-25T01:17:25;102773.41;;;10.26;81.28
71772;BME280;59606;52.138;5.424;2023-05-25T01:19:55;102772.53;;;10.23;81.45
71772;BME280;59606;52.138;5.424;2023-05-25T01:22:59;102774.41;;;10.18;81.68
71772;BME280;59606;52.138;5.424;2023-05-25T01:25:42;102775.38;;;10.12;82.26
71772;BME280;59606;52.138;5.424;2023-05-25T01:28:16;102772.84;;;10.09;82.27
71772;BME280;59606;52.138;5.424;2023-05-25T01:30:46;102770.28;;;10.07;82.25
71772;BME280;59606;52.138;5.424;2023-05-25T01:33:18;102780.72;;;10.06;82.32
71772;BME280;59606;52.138;5.424;2023-05-25T01:35:45;102781.69;;;10.03;82.29
71772;BME280;59606;52.138;5.424;2023-05-25T01:38:13;102773.06;;;10.00;82.58
71772;BME280;59606;52.138;5.424;2023-05-25T01:40:40;102771.38;;;9.97;82.35
71772;BME280;59606;52.138;5.424;2023-05-25T01:43:06;102772.34;;;9.93;82.39
71772;BME280;59606;52.138;5.424;2023-05-25T01:45:33;102775.88;;;9.89;82.83
71772;BME280;59606;52.138;5.424;2023-05-25T01:50:49;102782.91;;;9.85;83.08
71772;BME280;59606;52.138;5.424;2023-05-25T01:53:28;102785.56;;;9.82;83.21
71772;BME280;59606;52.138;5.424;2023-05-25T01:55:59;102785.66;;;9.79;83.11
71772;BME280;59606;52.138;5.424;2023-05-25T01:58:32;102784.81;;;9.77;83.36
71772;BME280;59606;52.138;5.424;2023-05-25T02:01:00;102785.72;;;9.75;83.46
71772;BME280;59606;52.138;5.424;2023-05-25T02:03:29;102792.69;;;9.74;83.33
71772;BME280;59606;52.138;5.424;2023-05-25T02:05:56;102796.25;;;9.70;82.75
71772;BME280;59606;52.138;5.424;2023-05-25T02:08:23;102793.63;;;9.70;83.02
71772;BME280;59606;52.138;5.424;2023-05-25T02:10:50;102791.09;;;9.67;83.34
71772;BME280;59606;52.138;5.424;2023-05-25T02:13:16;102784.19;;;9.64;83.48
71772;BME280;59606;52.138;5.424;2023-05-25T02:15:43;102792.06;;;9.61;82.76
71772;BME280;59606;52.138;5.424;2023-05-25T02:18:10;102782.53;;;9.60;83.16
71772;BME280;59606;52.138;5.424;2023-05-25T02:20:38;102796.47;;;9.58;82.72
71772;BME280;59606;52.138;5.424;2023-05-25T02:23:05;102784.41;;;9.54;83.52
71772;BME280;59606;52.138;5.424;2023-05-25T02:25:32;102787.06;;;9.51;82.94
71772;BME280;59606;52.138;5.424;2023-05-25T02:28:01;102781.91;;;9.48;83.37
71772;BME280;59606;52.138;5.424;2023-05-25T02:30:27;102785.44;;;9.45;83.26
71772;BME280;59606;52.138;5.424;2023-05-25T02:32:54;102785.53;;;9.40;82.91
71772;BME280;59606;52.138;5.424;2023-05-25T02:35:21;102780.38;;;9.39;83.48
71772;BME280;59606;52.138;5.424;2023-05-25T02:37:48;102791.69;;;9.36;83.29
71772;BME280;59606;52.138;5.424;2023-05-25T02:40:16;102790.84;;;9.34;83.80
71772;BME280;59606;52.138;5.424;2023-05-25T02:42:43;102793.47;;;9.33;83.12
71772;BME280;59606;52.138;5.424;2023-05-25T02:45:10;102792.63;;;9.31;83.58
71772;BME280;59606;52.138;5.424;2023-05-25T02:47:36;102799.59;;;9.29;83.80
71772;BME280;59606;52.138;5.424;2023-05-25T02:50:04;102808.34;;;9.26;83.36
71772;BME280;59606;52.138;5.424;2023-05-25T02:52:31;102801.44;;;9.24;83.78
71772;BME280;59606;52.138;5.424;2023-05-25T02:54:58;102797.13;;;9.23;83.88
71772;BME280;59606;52.138;5.424;2023-05-25T02:57:24;102799.72;;;9.23;83.98
71772;BME280;59606;52.138;5.424;2023-05-25T02:59:51;102805.84;;;9.20;83.50
71772;BME280;59606;52.138;5.424;2023-05-25T03:02:18;102803.22;;;9.20;83.75
71772;BME280;59606;52.138;5.424;2023-05-25T03:04:46;102809.34;;;9.19;84.35
71772;BME280;59606;52.138;5.424;2023-05-25T03:07:15;102806.78;;;9.16;84.23
71772;BME280;59606;52.138;5.424;2023-05-25T03:09:41;102810.22;;;9.16;84.23
71772;BME280;59606;52.138;5.424;2023-05-25T03:12:08;102806.78;;;9.14;84.99
71772;BME280;59606;52.138;5.424;2023-05-25T03:14:34;102816.38;;;9.12;85.17
71772;BME280;59606;52.138;5.424;2023-05-25T03:17:01;102814.59;;;9.14;85.25
71772;BME280;59606;52.138;5.424;2023-05-25T03:19:27;102818.94;;;9.14;85.86
71772;BME280;59606;52.138;5.424;2023-05-25T03:21:54;102823.28;;;9.13;86.59
71772;BME280;59606;52.138;5.424;2023-05-25T03:24:20;102831.03;;;9.15;86.17
71772;BME280;59606;52.138;5.424;2023-05-25T03:26:49;102823.25;;;9.15;86.26
71772;BME280;59606;52.138;5.424;2023-05-25T03:29:16;102819.84;;;9.13;86.41
71772;BME280;59606;52.138;5.424;2023-05-25T03:31:42;102821.59;;;9.11;86.63
71772;BME280;59606;52.138;5.424;2023-05-25T03:34:09;102823.38;;;9.09;86.23
71772;BME280;59606;52.138;5.424;2023-05-25T03:36:35;102826.88;;;9.06;86.58
71772;BME280;59606;52.138;5.424;2023-05-25T03:39:05;102835.56;;;9.04;87.04
71772;BME280;59606;52.138;5.424;2023-05-25T03:41:32;102831.28;;;9.01;86.66
71772;BME280;59606;52.138;5.424;2023-05-25T03:43:58;102826.13;;;9.00;86.71
71772;BME280;59606;52.138;5.424;2023-05-25T03:46:25;102822.66;;;8.97;86.70
71772;BME280;59606;52.138;5.424;2023-05-25T03:48:51;102825.31;;;8.96;87.08
71772;BME280;59606;52.138;5.424;2023-05-25T03:51:21;102823.59;;;8.93;86.99
71772;BME280;59606;52.138;5.424;2023-05-25T03:53:47;102826.22;;;8.92;86.90
71772;BME280;59606;52.138;5.424;2023-05-25T03:56:14;102827.09;;;8.91;86.79
71772;BME280;59606;52.138;5.424;2023-05-25T03:58:40;102826.25;;;8.90;87.27
71772;BME280;59606;52.138;5.424;2023-05-25T04:01:07;102822.81;;;8.88;87.73
71772;BME280;59606;52.138;5.424;2023-05-25T04:03:35;102830.69;;;8.84;86.99
71772;BME280;59606;52.138;5.424;2023-05-25T04:06:02;102835.03;;;8.83;87.28
71772;BME280;59606;52.138;5.424;2023-05-25T04:08:29;102834.19;;;8.81;87.86
71772;BME280;59606;52.138;5.424;2023-05-25T04:10:55;102831.53;;;8.84;87.44
71772;BME280;59606;52.138;5.424;2023-05-25T04:13:22;102833.25;;;8.87;87.32
71772;BME280;59606;52.138;5.424;2023-05-25T04:15:50;102828.91;;;8.87;86.97
71772;BME280;59606;52.138;5.424;2023-05-25T04:18:16;102833.22;;;8.88;87.70
71772;BME280;59606;52.138;5.424;2023-05-25T04:20:45;102838.41;;;8.88;87.20
71772;BME280;59606;52.138;5.424;2023-05-25T04:23:11;102847.91;;;8.92;87.31
71772;BME280;59606;52.138;5.424;2023-05-25T04:25:38;102846.97;;;8.95;88.25
71772;BME280;59606;52.138;5.424;2023-05-25T04:28:04;102850.41;;;8.97;88.10
71772;BME280;59606;52.138;5.424;2023-05-25T04:30:33;102855.53;;;9.02;88.09
71772;BME280;59606;52.138;5.424;2023-05-25T04:33:01;102858.09;;;9.05;88.49
71772;BME280;59606;52.138;5.424;2023-05-25T04:35:28;102853.72;;;9.07;88.76
71772;BME280;59606;52.138;5.424;2023-05-25T04:37:56;102857.19;;;9.09;88.82
71772;BME280;59606;52.138;5.424;2023-05-25T04:40:25;102862.28;;;9.12;88.60
71772;BME280;59606;52.138;5.424;2023-05-25T04:42:53;102858.78;;;9.14;88.60
71772;BME280;59606;52.138;5.424;2023-05-25T04:45:21;102860.41;;;9.21;89.54
71772;BME280;59606;52.138;5.424;2023-05-25T04:47:50;102858.59;;;9.27;89.08
71772;BME280;59606;52.138;5.424;2023-05-25T04:50:18;102868.91;;;9.33;90.13
71772;BME280;59606;52.138;5.424;2023-05-25T04:52:44;102866.22;;;9.37;91.12
71772;BME280;59606;52.138;5.424;2023-05-25T04:55:11;102863.50;;;9.43;91.57
71772;BME280;59606;52.138;5.424;2023-05-25T04:57:38;102872.06;;;9.50;91.52
71772;BME280;59606;52.138;5.424;2023-05-25T05:00:05;102877.97;;;9.60;92.39
71772;BME280;59606;52.138;5.424;2023-05-25T05:02:36;102876.97;;;9.67;92.01
71772;BME280;59606;52.138;5.424;2023-05-25T05:05:03;102877.66;;;9.77;92.31
71772;BME280;59606;52.138;5.424;2023-05-25T05:07:30;102884.38;;;9.88;93.13
71772;BME280;59606;52.138;5.424;2023-05-25T05:09:57;102877.28;;;9.97;93.19
71772;BME280;59606;52.138;5.424;2023-05-25T05:12:23;102883.19;;;10.06;93.55
71772;BME280;59606;52.138;5.424;2023-05-25T05:14:49;102878.66;;;10.14;93.62
71772;BME280;59606;52.138;5.424;2023-05-25T05:17:16;102875.81;;;10.25;93.46
71772;BME280;59606;52.138;5.424;2023-05-25T05:19:42;102883.53;;;10.33;93.77
71772;BME280;59606;52.138;5.424;2023-05-25T05:22:09;102885.06;;;10.43;94.13
71772;BME280;59606;52.138;5.424;2023-05-25T05:24:38;102878.91;;;10.46;92.84
71772;BME280;59606;52.138;5.424;2023-05-25T05:27:04;102881.50;;;10.46;93.11
71772;BME280;59606;52.138;5.424;2023-05-25T05:29:31;102887.50;;;10.51;93.73
71772;BME280;59606;52.138;5.424;2023-05-25T05:31:59;102887.19;;;10.65;93.95
71772;BME280;59606;52.138;5.424;2023-05-25T05:34:26;102899.06;;;10.76;94.25
71772;BME280;59606;52.138;5.424;2023-05-25T05:36:52;102891.03;;;10.87;94.35
71772;BME280;59606;52.138;5.424;2023-05-25T05:39:24;102894.34;;;10.94;93.71
71772;BME280;59606;52.138;5.424;2023-05-25T05:41:52;102888.03;;;11.04;93.21
71772;BME280;59606;52.138;5.424;2023-05-25T05:44:22;102899.97;;;11.13;93.42
71772;BME280;59606;52.138;5.424;2023-05-25T05:46:54;102898.63;;;11.32;93.76
71772;BME280;59606;52.138;5.424;2023-05-25T05:49:28;102900.19;;;11.39;92.75
71772;BME280;59606;52.138;5.424;2023-05-25T05:51:55;102898.78;;;11.60;92.61
71772;BME280;59606;52.138;5.424;2023-05-25T05:54:21;102902.63;;;11.79;92.20
71772;BME280;59606;52.138;5.424;2023-05-25T05:56:49;102904.09;;;12.22;91.71
71772;BME280;59606;52.138;5.424;2023-05-25T05:59:16;102911.25;;;12.75;89.68
71772;BME280;59606;52.138;5.424;2023-05-25T06:01:43;102917.34;;;13.32;87.15
71772;BME280;59606;52.138;5.424;2023-05-25T06:04:09;102922.44;;;13.86;83.85
71772;BME280;59606;52.138;5.424;2023-05-25T06:06:36;102918.53;;;14.22;82.30
71772;BME280;59606;52.138;5.424;2023-05-25T06:09:03;102917.94;;;14.38;80.07
71772;BME280;59606;52.138;5.424;2023-05-25T06:11:35;102925.34;;;14.51;79.83
71772;BME280;59606;52.138;5.424;2023-05-25T06:14:02;102926.38;;;13.98;79.70
71772;BME280;59606;52.138;5.424;2023-05-25T06:16:29;102932.72;;;13.41;82.15
71772;BME280;59606;52.138;5.424;2023-05-25T06:18:56;102928.50;;;13.09;82.94
71772;BME280;59606;52.138;5.424;2023-05-25T06:21:24;102926.84;;;12.78;84.22
71772;BME280;59606;52.138;5.424;2023-05-25T06:23:51;102932.88;;;12.50;85.08
71772;BME280;59606;52.138;5.424;2023-05-25T06:26:18;102926.09;;;12.45;85.96
71772;BME280;59606;52.138;5.424;2023-05-25T06:28:44;102933.13;;;12.43;86.16
71772;BME280;59606;52.138;5.424;2023-05-25T06:31:12;102928.72;;;12.45;86.80
71772;BME280;59606;52.138;5.424;2023-05-25T06:33:39;102937.25;;;12.50;86.71
71772;BME280;59606;52.138;5.424;2023-05-25T06:36:07;102935.41;;;12.54;86.25
71772;BME280;59606;52.138;5.424;2023-05-25T06:38:34;102936.09;;;12.60;86.29
71772;BME280;59606;52.138;5.424;2023-05-25T06:41:00;102930.59;;;12.69;86.17
71772;BME280;59606;52.138;5.424;2023-05-25T06:43:28;102935.63;;;12.76;85.90
71772;BME280;59606;52.138;5.424;2023-05-25T06:45:55;102944.09;;;12.84;85.69
71772;BME280;59606;52.138;5.424;2023-05-25T06:48:22;102943.16;;;12.86;84.55
71772;BME280;59606;52.138;5.424;2023-05-25T06:50:48;102942.41;;;12.83;84.93
71772;BME280;59606;52.138;5.424;2023-05-25T06:53:15;102938.84;;;12.85;84.98
71772;BME280;59606;52.138;5.424;2023-05-25T06:55:42;102945.25;;;13.03;85.34
71772;BME280;59606;52.138;5.424;2023-05-25T06:58:09;102936.34;;;13.09;86.26
71772;BME280;59606;52.138;5.424;2023-05-25T07:00:36;102943.94;;;13.18;85.03
71772;BME280;59606;52.138;5.424;2023-05-25T07:03:03;102948.97;;;13.24;84.44
71772;BME280;59606;52.138;5.424;2023-05-25T07:05:30;102955.09;;;13.25;82.78
71772;BME280;59606;52.138;5.424;2023-05-25T07:07:56;102961.84;;;13.32;82.64
71772;BME280;59606;52.138;5.424;2023-05-25T07:10:23;102961.38;;;13.46;82.37
71772;BME280;59606;52.138;5.424;2023-05-25T07:12:49;102965.09;;;13.65;82.08
71772;BME280;59606;52.138;5.424;2023-05-25T07:15:16;102966.72;;;13.69;80.52
71772;BME280;59606;52.138;5.424;2023-05-25T07:17:42;102969.97;;;13.76;80.98
71772;BME280;59606;52.138;5.424;2023-05-25T07:20:09;102966.22;;;13.83;79.92
71772;BME280;59606;52.138;5.424;2023-05-25T07:22:38;102969.31;;;13.94;80.50
71772;BME280;59606;52.138;5.424;2023-05-25T07:25:05;102970.69;;;14.06;80.39
71772;BME280;59606;52.138;5.424;2023-05-25T07:27:32;102965.25;;;14.10;79.16
71772;BME280;59606;52.138;5.424;2023-05-25T07:29:59;102968.31;;;13.98;77.40
71772;BME280;59606;52.138;5.424;2023-05-25T07:32:25;102969.88;;;14.04;76.54
71772;BME280;59606;52.138;5.424;2023-05-25T07:34:52;102971.47;;;14.08;76.72
71772;BME280;59606;52.138;5.424;2023-05-25T07:37:19;102971.44;;;14.09;76.29
71772;BME280;59606;52.138;5.424;2023-05-25T07:39:45;102970.56;;;14.09;75.71
71772;BME280;59606;52.138;5.424;2023-05-25T07:42:12;102975.06;;;14.05;76.49
71772;BME280;59606;52.138;5.424;2023-05-25T07:44:38;102974.31;;;14.02;77.01
71772;BME280;59606;52.138;5.424;2023-05-25T07:47:05;102973.19;;;14.09;76.64
71772;BME280;59606;52.138;5.424;2023-05-25T07:49:32;102978.19;;;14.15;76.52
71772;BME280;59606;52.138;5.424;2023-05-25T07:51:58;102984.97;;;14.22;77.39
71772;BME280;59606;52.138;5.424;2023-05-25T07:54:25;102978.72;;;14.25;77.43
71772;BME280;59606;52.138;5.424;2023-05-25T07:56:51;102984.84;;;14.25;77.11
71772;BME280;59606;52.138;5.424;2023-05-25T07:59:18;102989.09;;;14.28;77.37
71772;BME280;59606;52.138;5.424;2023-05-25T08:01:44;102994.41;;;14.26;76.59
71772;BME280;59606;52.138;5.424;2023-05-25T08:04:11;102992.66;;;14.27;75.92
71772;BME280;59606;52.138;5.424;2023-05-25T08:06:38;103002.97;;;14.31;76.14
71772;BME280;59606;52.138;5.424;2023-05-25T08:09:05;102996.53;;;14.40;75.75
71772;BME280;59606;52.138;5.424;2023-05-25T08:11:33;103002.44;;;14.45;75.73
71772;BME280;59606;52.138;5.424;2023-05-25T08:13:59;103002.28;;;14.51;75.33
71772;BME280;59606;52.138;5.424;2023-05-25T08:16:26;102994.25;;;14.56;74.74
71772;BME280;59606;52.138;5.424;2023-05-25T08:18:52;103009.78;;;14.62;75.28
71772;BME280;59606;52.138;5.424;2023-05-25T08:21:19;102990.88;;;14.76;74.67
71772;BME280;59606;52.138;5.424;2023-05-25T08:23:46;102998.22;;;14.90;73.61
71772;BME280;59606;52.138;5.424;2023-05-25T08:26:13;103009.38;;;14.95;73.24
71772;BME280;59606;52.138;5.424;2023-05-25T08:28:59;103005.38;;;15.08;72.78
71772;BME280;59606;52.138;5.424;2023-05-25T08:31:27;103015.31;;;15.22;71.74
71772;BME280;59606;52.138;5.424;2023-05-25T08:33:54;103019.28;;;15.32;70.70
71772;BME280;59606;52.138;5.424;2023-05-25T08:36:20;103012.16;;;15.36;70.17
71772;BME280;59606;52.138;5.424;2023-05-25T08:38:47;103019.06;;;15.38;69.35
71772;BME280;59606;52.138;5.424;2023-05-25T08:41:14;103022.28;;;15.45;69.32
71772;BME280;59606;52.138;5.424;2023-05-25T08:43:42;103016.00;;;15.49;69.65
71772;BME280;59606;52.138;5.424;2023-05-25T08:46:08;103010.69;;;15.50;69.32
71772;BME280;59606;52.138;5.424;2023-05-25T08:48:36;103007.97;;;15.52;70.04
71772;BME280;59606;52.138;5.424;2023-05-25T08:51:09;103004.25;;;15.57;70.61
71772;BME280;59606;52.138;5.424;2023-05-25T08:53:39;103010.63;;;15.74;69.26
71772;BME280;59606;52.138;5.424;2023-05-25T08:58:48;103007.78;;;15.78;68.66
71772;BME280;59606;52.138;5.424;2023-05-25T09:01:20;103008.50;;;15.82;67.14
71772;BME280;59606;52.138;5.424;2023-05-25T09:03:48;103007.88;;;15.77;66.55
71772;BME280;59606;52.138;5.424;2023-05-25T09:06:16;103003.72;;;15.71;66.70
71772;BME280;59606;52.138;5.424;2023-05-25T09:08:43;103007.63;;;15.61;66.20
71772;BME280;59606;52.138;5.424;2023-05-25T09:11:11;103001.34;;;15.43;65.77
71772;BME280;59606;52.138;5.424;2023-05-25T09:13:42;103010.00;;;15.45;67.24
71772;BME280;59606;52.138;5.424;2023-05-25T09:16:08;103001.75;;;15.54;66.87
71772;BME280;59606;52.138;5.424;2023-05-25T09:18:36;103003.22;;;15.84;67.83
71772;BME280;59606;52.138;5.424;2023-05-25T09:21:03;103009.31;;;16.05;65.53
71772;BME280;59606;52.138;5.424;2023-05-25T09:23:30;103006.16;;;16.17;66.60
71772;BME280;59606;52.138;5.424;2023-05-25T09:25:57;102993.84;;;16.38;64.72
71772;BME280;59606;52.138;5.424;2023-05-25T09:28:23;103001.75;;;16.57;64.06
71772;BME280;59606;52.138;5.424;2023-05-25T09:30:53;102993.50;;;16.64;62.46
71772;BME280;59606;52.138;5.424;2023-05-25T09:33:21;103004.53;;;16.54;62.09
71772;BME280;59606;52.138;5.424;2023-05-25T09:35:48;102995.63;;;16.56;62.40
71772;BME280;59606;52.138;5.424;2023-05-25T09:38:15;102994.69;;;16.78;61.00
71772;BME280;59606;52.138;5.424;2023-05-25T09:40:43;102992.19;;;16.93;60.00
71772;BME280;59606;52.138;5.424;2023-05-25T09:43:11;102992.53;;;17.05;59.89
71772;BME280;59606;52.138;5.424;2023-05-25T09:45:47;102992.53;;;17.05;59.90
71772;BME280;59606;52.138;5.424;2023-05-25T09:48:14;102990.03;;;17.02;59.68
71772;BME280;59606;52.138;5.424;2023-05-25T09:50:41;102991.09;;;16.98;59.98
71772;BME280;59606;52.138;5.424;2023-05-25T09:53:09;102991.44;;;16.90;59.94
71772;BME280;59606;52.138;5.424;2023-05-25T09:55:36;102989.75;;;16.89;60.20
71772;BME280;59606;52.138;5.424;2023-05-25T09:58:21;102998.97;;;16.80;59.95
71772;BME280;59606;52.138;5.424;2023-05-25T10:00:52;102992.03;;;16.78;60.86
71772;BME280;59606;52.138;5.424;2023-05-25T10:03:20;103008.00;;;16.73;60.54
71772;BME280;59606;52.138;5.424;2023-05-25T10:05:47;102997.97;;;16.62;61.21
71772;BME280;59606;52.138;5.424;2023-05-25T10:08:16;102995.28;;;16.64;61.72
71772;BME280;59606;52.138;5.424;2023-05-25T10:10:45;102994.72;;;16.76;60.97
71772;BME280;59606;52.138;5.424;2023-05-25T10:13:20;102987.78;;;16.94;60.74
71772;BME280;59606;52.138;5.424;2023-05-25T10:15:52;102993.84;;;17.13;58.34
71772;BME280;59606;52.138;5.424;2023-05-25T10:18:25;102996.22;;;17.01;58.74
71772;BME280;59606;52.138;5.424;2023-05-25T10:21:00;102994.22;;;17.06;58.88
71772;BME280;59606;52.138;5.424;2023-05-25T10:23:37;102995.91;;;17.26;59.62
71772;BME280;59606;52.138;5.424;2023-05-25T10:26:07;102999.88;;;17.34;59.12
71772;BME280;59606;52.138;5.424;2023-05-25T10:28:36;103002.72;;;17.30;58.47
71772;BME280;59606;52.138;5.424;2023-05-25T10:31:04;103008.84;;;17.30;58.83
71772;BME280;59606;52.138;5.424;2023-05-25T10:33:31;103007.84;;;17.33;58.13
71772;BME280;59606;52.138;5.424;2023-05-25T10:35:59;102999.59;;;17.40;59.56
71772;BME280;59606;52.138;5.424;2023-05-25T10:38:38;103015.81;;;17.67;59.77
71772;BME280;59606;52.138;5.424;2023-05-25T10:41:08;103021.31;;;17.80;57.91
71772;BME280;59606;52.138;5.424;2023-05-25T10:43:37;103013.41;;;17.80;58.63
71772;BME280;59606;52.138;5.424;2023-05-25T10:46:07;103003.66;;;17.82;57.22
71772;BME280;59606;52.138;5.424;2023-05-25T10:48:38;103013.63;;;17.76;57.02
71772;BME280;59606;52.138;5.424;2023-05-25T10:51:05;103003.03;;;17.77;56.18
71772;BME280;59606;52.138;5.424;2023-05-25T10:53:36;103001.00;;;17.65;56.10
71772;BME280;59606;52.138;5.424;2023-05-25T10:56:04;103001.94;;;17.64;55.63
71772;BME280;59606;52.138;5.424;2023-05-25T10:58:32;103009.03;;;17.62;53.92
71772;BME280;59606;52.138;5.424;2023-05-25T11:00:59;103003.63;;;17.65;54.37
71772;BME280;59606;52.138;5.424;2023-05-25T11:03:55;103007.28;;;17.80;55.12
71772;BME280;59606;52.138;5.424;2023-05-25T11:09:06;103008.06;;;17.99;53.47
71772;BME280;59606;52.138;5.424;2023-05-25T11:14:21;103003.91;;;18.28;54.58
71772;BME280;59606;52.138;5.424;2023-05-25T11:17:14;103013.03;;;18.38;54.64
71772;BME280;59606;52.138;5.424;2023-05-25T11:19:53;103002.38;;;18.24;54.61
71772;BME280;59606;52.138;5.424;2023-05-25T11:22:32;103000.28;;;18.13;55.29
71772;BME280;59606;52.138;5.424;2023-05-25T11:25:02;103028.84;;;18.05;54.72
71772;BME280;59606;52.138;5.424;2023-05-25T11:27:49;103003.31;;;18.06;55.90
71772;BME280;59606;52.138;5.424;2023-05-25T11:30:16;103008.88;;;18.17;55.87
71772;BME280;59606;52.138;5.424;2023-05-25T11:32:49;103001.63;;;18.38;56.27
71772;BME280;59606;52.138;5.424;2023-05-25T11:35:16;103007.75;;;18.38;55.48
71772;BME280;59606;52.138;5.424;2023-05-25T11:37:48;103011.94;;;18.43;54.70
71772;BME280;59606;52.138;5.424;2023-05-25T11:40:16;103005.75;;;18.26;55.56
71772;BME280;59606;52.138;5.424;2023-05-25T11:42:45;103008.50;;;18.25;54.54
71772;BME280;59606;52.138;5.424;2023-05-25T11:45:13;103004.66;;;18.30;55.36
71772;BME280;59606;52.138;5.424;2023-05-25T11:47:40;103007.81;;;18.37;55.26
71772;BME280;59606;52.138;5.424;2023-05-25T11:50:07;103004.44;;;18.35;54.85
71772;BME280;59606;52.138;5.424;2023-05-25T11:52:40;102990.91;;;18.41;54.88
71772;BME280;59606;52.138;5.424;2023-05-25T11:55:11;102999.84;;;18.38;54.11
71772;BME280;59606;52.138;5.424;2023-05-25T11:57:38;103000.94;;;18.34;53.88
71772;BME280;59606;52.138;5.424;2023-05-25T12:00:06;102991.63;;;18.27;54.48
71772;BME280;59606;52.138;5.424;2023-05-25T12:02:37;102980.16;;;18.28;54.94
71772;BME280;59606;52.138;5.424;2023-05-25T12:05:05;102991.66;;;18.43;53.63
71772;BME280;59606;52.138;5.424;2023-05-25T12:07:42;102984.53;;;18.45;54.12
71772;BME280;59606;52.138;5.424;2023-05-25T12:10:10;102991.44;;;18.48;53.38
71772;BME280;59606;52.138;5.424;2023-05-25T12:15:13;102981.25;;;18.73;52.47
71772;BME280;59606;52.138;5.424;2023-05-25T12:17:41;102977.94;;;18.86;52.44
71772;BME280;59606;52.138;5.424;2023-05-25T12:20:10;102978.97;;;18.99;51.64
71772;BME280;59606;52.138;5.424;2023-05-25T12:22:38;102972.97;;;19.11;51.98
71772;BME280;59606;52.138;5.424;2023-05-25T12:25:07;102970.94;;;19.16;50.71
71772;BME280;59606;52.138;5.424;2023-05-25T12:27:33;102975.28;;;19.17;51.96
71772;BME280;59606;52.138;5.424;2023-05-25T12:30:00;102978.94;;;19.15;50.61
71772;BME280;59606;52.138;5.424;2023-05-25T12:32:26;102982.53;;;18.98;51.37
71772;BME280;59606;52.138;5.424;2023-05-25T12:35:04;102973.94;;;18.94;51.78
71772;BME280;59606;52.138;5.424;2023-05-25T12:37:31;102984.59;;;18.93;53.29
71772;BME280;59606;52.138;5.424;2023-05-25T12:39:59;102983.47;;;18.81;53.50
71772;BME280;59606;52.138;5.424;2023-05-25T12:42:25;102988.16;;;18.76;53.43
71772;BME280;59606;52.138;5.424;2023-05-25T12:44:54;102976.13;;;18.70;53.65
71772;BME280;59606;52.138;5.424;2023-05-25T12:47:24;102984.97;;;18.69;53.10
71772;BME280;59606;52.138;5.424;2023-05-25T12:50:09;102992.69;;;18.90;53.76
71772;BME280;59606;52.138;5.424;2023-05-25T12:52:38;102988.94;;;18.94;52.00
71772;BME280;59606;52.138;5.424;2023-05-25T12:55:30;102978.03;;;19.00;51.74
71772;BME280;59606;52.138;5.424;2023-05-25T12:58:00;102986.06;;;18.98;51.35
71772;BME280;59606;52.138;5.424;2023-05-25T13:00:38;102983.75;;;18.92;51.20
71772;BME280;59606;52.138;5.424;2023-05-25T13:03:06;102974.09;;;18.91;51.10
71772;BME280;59606;52.138;5.424;2023-05-25T13:05:35;102971.56;;;18.90;51.67
71772;BME280;59606;52.138;5.424;2023-05-25T13:08:03;102971.97;;;18.98;51.24
71772;BME280;59606;52.138;5.424;2023-05-25T13:10:30;102968.56;;;18.96;52.00
71772;BME280;59606;52.138;5.424;2023-05-25T13:12:58;102967.19;;;19.04;51.80